Time;durP1;ratioP1;P1;durP2;ratioP2;P2;SDS_P1;SDS_P2;PMS_P1;PMS_P2;Temp;Humidity;BMP_temperature;BMP_pressure;BME280_temperature;BME280_humidity;BME280_pressure;Samples;Min_cycle;Max_cycle;Signal;HPM_P1;HPM_P2
2022/08/04 00:02:14;;;;;;;8.98;2.63;;;20.40;99.90;;;;;;5034355;28;20045;-68
2022/08/04 00:05:15;;;;;;;11.63;4.07;;;20.40;99.90;;;;;;5047017;28;20086;-68
2022/08/04 00:07:51;;;;;;;8.43;2.35;;;20.50;99.90;;;;;;5043838;28;20040;-68
2022/08/04 00:10:19;;;;;;;8.35;2.60;;;20.70;99.90;;;;;;5036205;28;20041;-68
2022/08/04 00:12:48;;;;;;;6.55;1.95;;;20.80;99.90;;;;;;5042658;28;20071;-68
2022/08/04 00:15:15;;;;;;;6.70;2.28;;;20.60;99.90;;;;;;5037219;28;20060;-68
2022/08/04 00:17:53;;;;;;;7.93;2.72;;;20.70;99.90;;;;;;5033406;28;20045;-67
2022/08/04 00:20:19;;;;;;;10.32;3.67;;;20.50;99.90;;;;;;5033295;28;20057;-67
2022/08/04 00:22:47;;;;;;;7.60;3.03;;;20.60;99.90;;;;;;5041004;28;20395;-67
2022/08/04 00:25:12;;;;;;;6.28;2.80;;;20.60;99.90;;;;;;5038906;28;20409;-68
2022/08/04 00:27:38;;;;;;;10.20;3.05;;;20.40;99.90;;;;;;5039037;28;20037;-68
2022/08/04 00:30:05;;;;;;;8.88;3.00;;;20.40;99.90;;;;;;5040873;28;20037;-68
2022/08/04 00:32:32;;;;;;;9.52;2.88;;;20.50;99.90;;;;;;5046765;28;20037;-67
2022/08/04 00:34:58;;;;;;;10.75;2.50;;;20.40;99.90;;;;;;5043386;28;20159;-67
2022/08/04 00:37:25;;;;;;;9.38;2.58;;;20.20;99.90;;;;;;5051522;28;20574;-68
2022/08/04 00:39:54;;;;;;;10.90;3.38;;;20.40;99.90;;;;;;5048182;28;20045;-68
2022/08/04 00:42:20;;;;;;;7.15;2.60;;;20.30;99.90;;;;;;5032789;28;20034;-68
2022/08/04 00:45:02;;;;;;;10.20;2.92;;;20.20;99.90;;;;;;5035973;28;20095;-67
2022/08/04 00:47:52;;;;;;;7.20;2.55;;;20.10;99.90;;;;;;5041375;28;20041;-67
2022/08/04 00:50:30;;;;;;;10.38;3.08;;;20.10;99.90;;;;;;5032442;28;20135;-68
2022/08/04 00:53:08;;;;;;;8.80;3.08;;;19.80;99.90;;;;;;5045179;28;20041;-68
2022/08/04 00:56:17;;;;;;;9.25;2.78;;;19.80;99.90;;;;;;5040921;28;20045;-67
2022/08/04 00:58:53;;;;;;;12.23;2.70;;;19.80;99.90;;;;;;5045049;28;20049;-68
2022/08/04 01:01:24;;;;;;;6.32;2.47;;;20.00;99.90;;;;;;5045804;28;20044;-67
2022/08/04 01:04:15;;;;;;;11.55;2.70;;;20.90;99.90;;;;;;5037580;28;20117;-67
2022/08/04 01:06:56;;;;;;;9.38;2.72;;;20.10;99.90;;;;;;5038084;28;20041;-67
2022/08/04 01:09:51;;;;;;;11.70;3.15;;;21.00;99.90;;;;;;5042987;28;20087;-68
2022/08/04 01:12:33;;;;;;;6.30;2.20;;;20.40;99.90;;;;;;5031005;28;20108;-67
2022/08/04 01:15:38;;;;;;;7.32;2.90;;;20.30;99.90;;;;;;5045914;28;20538;-67
2022/08/04 01:18:06;;;;;;;8.60;3.03;;;20.40;99.90;;;;;;5032547;28;20121;-67
2022/08/04 01:21:11;;;;;;;9.13;2.92;;;20.30;99.90;;;;;;5032426;28;20555;-67
2022/08/04 01:24:02;;;;;;;7.90;2.65;;;20.30;99.90;;;;;;5037346;28;20073;-68
2022/08/04 01:26:49;;;;;;;7.53;3.20;;;20.30;99.90;;;;;;5038817;28;20049;-67
2022/08/04 01:29:15;;;;;;;10.40;3.17;;;20.50;99.90;;;;;;5038772;28;20091;-67
2022/08/04 01:32:01;;;;;;;6.78;2.20;;;20.10;99.90;;;;;;5038752;28;20052;-67
2022/08/04 01:34:42;;;;;;;8.05;2.80;;;20.30;99.90;;;;;;5037257;28;20041;-68
2022/08/04 01:37:34;;;;;;;6.07;2.63;;;20.10;99.90;;;;;;5049245;28;20390;-68
2022/08/04 01:40:03;;;;;;;6.57;2.63;;;20.20;99.90;;;;;;5053521;28;20034;-68
2022/08/04 01:42:32;;;;;;;8.88;2.95;;;20.00;99.90;;;;;;5051024;28;20108;-67
2022/08/04 01:45:02;;;;;;;5.28;2.00;;;20.30;99.90;;;;;;5054120;28;20099;-67
2022/08/04 01:47:29;;;;;;;4.80;1.77;;;20.00;99.90;;;;;;5045239;28;20053;-67
2022/08/04 01:50:04;;;;;;;10.02;2.47;;;19.80;99.90;;;;;;5038525;28;20041;-67
2022/08/04 01:52:31;;;;;;;9.45;2.65;;;19.70;99.90;;;;;;5038623;28;20091;-67
2022/08/04 01:54:56;;;;;;;6.15;2.42;;;19.70;99.90;;;;;;5038119;28;20052;-68
2022/08/04 01:57:23;;;;;;;7.65;2.55;;;19.10;99.90;;;;;;5038622;28;20029;-68
2022/08/04 01:59:51;;;;;;;10.40;3.10;;;19.00;99.90;;;;;;5038328;28;20056;-68
2022/08/04 02:02:20;;;;;;;8.43;3.28;;;19.00;99.90;;;;;;5045868;28;20032;-67
2022/08/04 02:04:46;;;;;;;9.07;2.38;;;18.90;99.90;;;;;;5044815;28;20037;-67
2022/08/04 02:07:16;;;;;;;10.20;3.03;;;18.90;99.90;;;;;;5038500;28;20112;-68
2022/08/04 02:10:07;;;;;;;4.93;2.50;;;19.00;99.90;;;;;;5038539;28;20056;-68
2022/08/04 02:13:11;;;;;;;6.63;2.10;;;19.00;99.90;;;;;;5040214;28;20049;-68
2022/08/04 02:15:51;;;;;;;6.93;2.90;;;18.70;99.90;;;;;;5049098;28;20041;-68
2022/08/04 02:18:27;;;;;;;9.55;2.60;;;18.70;99.90;;;;;;5037226;28;20060;-68
2022/08/04 02:21:00;;;;;;;6.65;2.10;;;18.80;99.90;;;;;;5038192;28;20495;-67
2022/08/04 02:23:41;;;;;;;5.53;2.17;;;20.60;99.90;;;;;;5050661;28;20051;-68
2022/08/04 02:26:17;;;;;;;6.07;2.58;;;18.90;99.90;;;;;;5045941;28;20045;-67
2022/08/04 02:28:57;;;;;;;7.70;2.17;;;18.90;99.90;;;;;;5056852;28;20049;-68
2022/08/04 02:31:31;;;;;;;6.10;2.45;;;18.80;99.90;;;;;;5048141;28;20042;-68
2022/08/04 02:34:15;;;;;;;9.23;2.33;;;18.60;99.90;;;;;;5048065;28;20049;-68
2022/08/04 02:36:42;;;;;;;7.68;2.85;;;18.50;99.90;;;;;;5041029;28;20048;-68
2022/08/04 02:39:10;;;;;;;7.28;2.28;;;18.60;99.90;;;;;;5041119;28;20045;-68
2022/08/04 02:41:37;;;;;;;7.30;1.90;;;18.50;99.90;;;;;;5049163;28;20442;-68
2022/08/04 02:44:04;;;;;;;5.15;2.58;;;18.50;99.90;;;;;;5035063;28;20051;-68
2022/08/04 02:46:32;;;;;;;7.85;2.47;;;18.60;99.90;;;;;;5049073;28;20045;-68
2022/08/04 02:49:00;;;;;;;5.70;2.15;;;18.90;99.90;;;;;;5042978;28;20483;-68
2022/08/04 02:51:32;;;;;;;5.47;2.70;;;18.50;99.90;;;;;;5038350;28;20051;-68
2022/08/04 02:53:59;;;;;;;7.25;2.75;;;18.50;99.90;;;;;;5054843;28;20045;-68
2022/08/04 02:56:28;;;;;;;9.52;2.55;;;18.40;99.90;;;;;;5065621;28;20123;-68
2022/08/04 02:59:02;;;;;;;9.73;2.47;;;18.40;99.90;;;;;;5054341;28;20503;-68
2022/08/04 03:01:28;;;;;;;8.48;2.92;;;18.20;99.90;;;;;;5053160;28;20053;-67
2022/08/04 03:04:06;;;;;;;7.38;2.75;;;18.30;99.90;;;;;;5074435;28;20048;-67
2022/08/04 03:06:44;;;;;;;6.75;2.65;;;18.20;99.90;;;;;;5059354;28;20487;-68
2022/08/04 03:09:31;;;;;;;10.73;3.47;;;18.40;99.90;;;;;;5047733;28;20036;-68
2022/08/04 03:11:56;;;;;;;6.82;2.33;;;18.50;99.90;;;;;;5070778;28;20076;-68
2022/08/04 03:14:43;;;;;;;6.88;2.90;;;18.20;99.90;;;;;;5044445;28;20080;-67
2022/08/04 03:17:28;;;;;;;7.10;2.95;;;18.30;99.90;;;;;;5055824;28;20075;-68
2022/08/04 03:20:21;;;;;;;4.88;2.72;;;18.50;99.90;;;;;;5064609;28;20503;-67
2022/08/04 03:23:18;;;;;;;6.47;2.83;;;18.20;99.90;;;;;;5052608;28;20051;-67
2022/08/04 03:25:44;;;;;;;5.18;2.47;;;18.20;99.90;;;;;;5052547;28;20520;-68
2022/08/04 03:28:22;;;;;;;6.85;2.53;;;18.20;99.90;;;;;;5054006;28;20068;-68
2022/08/04 03:31:15;;;;;;;8.88;3.35;;;18.20;99.90;;;;;;5055348;28;20144;-68
2022/08/04 03:34:06;;;;;;;7.55;3.13;;;18.00;99.90;;;;;;5072870;28;20040;-68
2022/08/04 03:37:01;;;;;;;8.27;2.80;;;18.10;99.90;;;;;;5064509;28;20111;-68
2022/08/04 03:40:00;;;;;;;6.00;3.13;;;17.90;99.90;;;;;;5047595;28;20190;-68
2022/08/04 03:42:51;;;;;;;9.27;2.85;;;17.80;99.90;;;;;;5053673;28;20677;-68
2022/08/04 03:45:58;;;;;;;7.28;3.30;;;18.30;99.90;;;;;;5052034;28;20457;-67
2022/08/04 03:48:53;;;;;;;8.48;3.15;;;18.20;99.90;;;;;;4983462;28;20046;-68
2022/08/04 03:54:24;;;;;;;13.25;3.50;;;18.30;99.90;;;;;;5052407;28;20057;-68
2022/08/04 03:57:19;;;;;;;4.28;2.28;;;18.30;99.90;;;;;;5053097;28;20499;-68
2022/08/04 04:00:02;;;;;;;6.78;2.95;;;18.40;99.90;;;;;;5049983;28;20117;-68
2022/08/04 04:02:52;;;;;;;6.03;2.58;;;18.30;99.90;;;;;;5054148;28;20051;-68
2022/08/04 04:05:39;;;;;;;3.70;2.50;;;18.30;99.90;;;;;;5068464;28;20029;-68
2022/08/04 04:08:14;;;;;;;5.30;2.30;;;18.30;99.90;;;;;;5053961;28;20102;-68
2022/08/04 04:11:07;;;;;;;6.75;2.92;;;18.10;99.90;;;;;;5052330;28;20045;-68
2022/08/04 04:13:58;;;;;;;7.80;3.20;;;18.10;99.90;;;;;;5053046;28;20056;-68
2022/08/04 04:16:56;;;;;;;7.07;3.50;;;18.10;99.90;;;;;;5053745;28;20110;-68
2022/08/04 04:19:36;;;;;;;5.47;3.47;;;18.30;99.90;;;;;;5043829;28;20067;-68
2022/08/04 04:22:34;;;;;;;9.70;4.13;;;18.30;99.90;;;;;;5053577;28;20380;-68
2022/08/04 04:25:27;;;;;;;5.20;3.00;;;18.00;99.90;;;;;;5052481;28;20052;-68
2022/08/04 04:28:26;;;;;;;4.50;3.20;;;18.00;99.90;;;;;;5052473;28;20112;-68
2022/08/04 04:31:17;;;;;;;8.77;3.65;;;18.30;99.90;;;;;;5052694;28;20379;-68
2022/08/04 04:33:51;;;;;;;5.60;3.45;;;18.30;99.90;;;;;;5053304;28;20037;-68
2022/08/04 04:36:35;;;;;;;13.30;3.45;;;18.20;99.90;;;;;;5062713;28;20054;-68
2022/08/04 04:39:12;;;;;;;9.17;3.73;;;18.40;99.90;;;;;;5054881;28;20047;-68
2022/08/04 04:41:58;;;;;;;8.18;3.35;;;18.30;99.90;;;;;;5051642;28;20283;-67
2022/08/04 04:45:14;;;;;;;9.95;4.40;;;18.40;99.90;;;;;;5066640;28;20041;-67
2022/08/04 04:48:18;;;;;;;6.95;3.55;;;18.50;99.90;;;;;;5044276;28;20053;-67
2022/08/04 04:51:05;;;;;;;8.27;3.40;;;18.40;99.90;;;;;;5054245;28;20055;-67
2022/08/04 04:53:55;;;;;;;7.05;2.90;;;18.50;99.90;;;;;;5060492;28;20047;-67
2022/08/04 04:56:44;;;;;;;7.82;3.55;;;18.40;99.90;;;;;;5053127;28;20052;-68
2022/08/04 04:59:14;;;;;;;8.00;3.05;;;18.60;99.90;;;;;;5052337;28;20140;-67
2022/08/04 05:02:08;;;;;;;6.63;3.10;;;18.60;99.90;;;;;;5052842;28;20399;-68
2022/08/04 05:05:05;;;;;;;5.43;3.75;;;18.70;99.90;;;;;;5053009;28;20037;-67
2022/08/04 05:07:57;;;;;;;8.50;3.63;;;18.70;99.90;;;;;;5057921;28;20040;-67
2022/08/04 05:10:41;;;;;;;11.48;3.83;;;18.90;99.90;;;;;;5065237;28;20048;-67
2022/08/04 05:13:26;;;;;;;9.25;3.35;;;19.10;99.90;;;;;;5051339;28;20076;-68
2022/08/04 05:15:54;;;;;;;;;;;19.10;99.90;;;;;;5052282;28;20044;-68
2022/08/04 05:18:29;;;;;;;9.38;3.75;;;19.40;99.90;;;;;;5066168;28;19917;-68
2022/08/04 05:21:03;;;;;;;7.60;3.65;;;19.50;99.90;;;;;;5061480;28;20032;-68
2022/08/04 05:23:34;;;;;;;6.63;3.63;;;19.30;99.90;;;;;;5071495;28;20067;-68
2022/08/04 05:26:10;;;;;;;5.72;3.30;;;19.40;99.90;;;;;;5061132;28;20044;-68
2022/08/04 05:28:40;;;;;;;5.93;3.53;;;21.00;99.90;;;;;;5071434;28;20044;-68
2022/08/04 05:31:21;;;;;;;6.07;3.58;;;21.50;99.90;;;;;;5052759;28;20041;-68
2022/08/04 05:33:57;;;;;;;8.10;4.57;;;19.70;99.90;;;;;;5051460;28;20514;-68
2022/08/04 05:36:32;;;;;;;23.92;5.45;;;19.80;99.90;;;;;;5047344;28;20626;-68
2022/08/04 05:38:59;;;;;;;6.18;3.50;;;19.80;99.90;;;;;;5055901;28;20041;-68
2022/08/04 05:41:26;;;;;;;8.93;4.75;;;20.70;99.90;;;;;;5052642;28;20040;-68
2022/08/04 05:43:53;;;;;;;9.10;4.72;;;20.10;99.90;;;;;;5052756;28;20118;-68
2022/08/04 05:46:19;;;;;;;10.52;4.65;;;20.50;99.90;;;;;;5051298;28;20084;-68
2022/08/04 05:48:46;;;;;;;8.05;4.28;;;21.00;99.90;;;;;;5047461;28;20103;-66
2022/08/04 05:51:14;;;;;;;11.55;4.15;;;21.60;99.90;;;;;;5037433;28;20044;-67
2022/08/04 05:53:43;;;;;;;7.70;4.95;;;22.40;99.90;;;;;;5048756;28;20053;-67
2022/08/04 05:56:12;;;;;;;12.02;5.18;;;23.00;99.90;;;;;;5049940;28;20044;-67
2022/08/04 05:58:37;;;;;;;11.23;4.90;;;23.50;99.90;;;;;;5055846;28;20499;-68
2022/08/04 06:01:07;;;;;;;10.70;5.03;;;23.70;99.90;;;;;;5059336;28;20033;-70
2022/08/04 06:03:34;;;;;;;12.00;4.35;;;25.80;99.90;;;;;;5057818;28;20505;-66
2022/08/04 06:06:00;;;;;;;10.15;3.70;;;25.60;99.90;;;;;;5045971;28;20427;-67
2022/08/04 06:08:26;;;;;;;11.93;4.38;;;25.30;99.90;;;;;;5053278;28;20045;-67
2022/08/04 06:10:54;;;;;;;9.52;3.38;;;25.20;99.90;;;;;;5053215;28;20036;-67
2022/08/04 06:13:28;;;;;;;6.90;3.72;;;25.30;99.90;;;;;;5053801;28;20076;-67
2022/08/04 06:15:55;;;;;;;5.50;2.70;;;25.60;99.90;;;;;;5052518;28;20124;-67
2022/08/04 06:18:23;;;;;;;7.43;2.90;;;25.70;99.90;;;;;;5052867;28;20041;-67
2022/08/04 06:20:51;;;;;;;10.50;2.80;;;26.10;99.90;;;;;;5052392;28;20115;-67
2022/08/04 06:23:19;;;;;;;8.63;3.03;;;26.30;99.90;;;;;;5054081;28;20076;-67
2022/08/04 06:25:55;;;;;;;7.82;3.05;;;26.70;99.90;;;;;;5053522;28;20044;-67
2022/08/04 06:28:22;;;;;;;5.93;2.90;;;27.20;99.90;;;;;;5053723;28;20390;-67
2022/08/04 06:30:49;;;;;;;10.45;2.90;;;27.20;99.90;;;;;;5053783;28;20047;-67
2022/08/04 06:33:26;;;;;;;10.80;2.75;;;29.20;99.90;;;;;;5053713;28;20037;-67
2022/08/04 06:35:54;;;;;;;10.10;2.70;;;29.50;99.90;;;;;;5053260;28;20048;-67
2022/08/04 06:38:26;;;;;;;6.35;1.90;;;28.70;99.90;;;;;;5053505;28;20574;-67
2022/08/04 06:40:53;;;;;;;10.25;2.50;;;28.70;99.90;;;;;;5053535;28;20116;-67
2022/08/04 06:43:20;;;;;;;7.78;2.13;;;27.10;99.90;;;;;;5052333;28;20033;-67
2022/08/04 06:45:48;;;;;;;4.05;2.13;;;27.20;99.90;;;;;;5053327;28;20052;-66
2022/08/04 06:48:16;;;;;;;6.30;1.83;;;27.40;99.90;;;;;;5053823;28;20390;-67
2022/08/04 06:50:46;;;;;;;7.25;2.10;;;28.40;99.90;;;;;;5053284;28;20094;-66
2022/08/04 06:53:12;;;;;;;12.40;2.00;;;27.40;99.90;;;;;;5053456;28;20044;-67
2022/08/04 06:55:42;;;;;;;8.32;2.08;;;27.70;99.90;;;;;;5051528;28;20897;-67
2022/08/04 06:58:09;;;;;;;14.13;2.40;;;27.80;99.90;;;;;;5056032;28;20101;-67
2022/08/04 07:00:36;;;;;;;6.72;1.83;;;27.80;99.90;;;;;;5040918;28;20038;-68
2022/08/04 07:03:04;;;;;;;7.30;2.10;;;27.70;99.90;;;;;;5017236;28;20091;-68
2022/08/04 07:05:30;;;;;;;8.02;2.17;;;27.20;99.90;;;;;;5035244;28;20403;-68
2022/08/04 07:07:56;;;;;;;5.90;1.98;;;26.90;99.90;;;;;;5045053;28;20045;-68
2022/08/04 07:10:23;;;;;;;5.75;2.38;;;26.60;99.90;;;;;;5053081;28;20036;-67
2022/08/04 07:12:50;;;;;;;8.65;2.35;;;26.80;99.90;;;;;;5052939;28;20053;-68
2022/08/04 07:15:17;;;;;;;7.90;1.88;;;26.00;99.90;;;;;;5051357;28;20052;-68
2022/08/04 07:17:45;;;;;;;9.38;2.05;;;25.80;99.90;;;;;;5051441;28;20090;-68
2022/08/04 07:20:10;;;;;;;7.78;1.98;;;26.60;99.90;;;;;;5051943;28;20048;-68
2022/08/04 07:22:37;;;;;;;10.40;2.38;;;25.60;99.90;;;;;;5053000;28;20084;-69
2022/08/04 07:25:08;;;;;;;7.68;2.50;;;26.50;99.90;;;;;;5047992;28;20037;-67
2022/08/04 07:27:35;;;;;;;6.97;2.50;;;25.70;99.90;;;;;;5051822;28;20075;-67
2022/08/04 07:30:02;;;;;;;10.13;3.15;;;25.50;99.90;;;;;;5050391;28;20540;-67
2022/08/04 07:32:28;;;;;;;11.15;3.08;;;26.40;99.90;;;;;;5052731;28;20044;-67
2022/08/04 07:34:54;;;;;;;6.97;2.42;;;27.00;99.90;;;;;;5050895;28;20037;-67
2022/08/04 07:37:20;;;;;;;9.15;3.75;;;26.60;99.90;;;;;;5052613;28;20047;-67
2022/08/04 07:39:46;;;;;;;5.45;2.70;;;26.40;99.90;;;;;;5052542;28;20037;-67
2022/08/04 07:42:12;;;;;;;7.53;3.13;;;25.70;99.90;;;;;;5051173;28;20517;-67
2022/08/04 07:44:38;;;;;;;10.32;2.85;;;25.70;99.90;;;;;;5050627;28;20426;-67
2022/08/04 07:47:06;;;;;;;7.50;2.80;;;25.70;99.90;;;;;;5052525;28;20037;-67
2022/08/04 07:49:31;;;;;;;7.03;3.40;;;26.10;99.90;;;;;;5052154;28;20037;-67
2022/08/04 07:51:58;;;;;;;7.50;3.33;;;27.40;99.90;;;;;;5051165;28;20395;-69
2022/08/04 07:54:24;;;;;;;7.22;3.40;;;25.90;99.90;;;;;;5033927;28;20036;-67
2022/08/04 07:56:50;;;;;;;10.13;3.78;;;26.10;99.90;;;;;;5050831;28;20122;-67
2022/08/04 07:59:19;;;;;;;6.90;2.95;;;26.40;99.90;;;;;;5064217;28;20066;-67
2022/08/04 08:01:46;;;;;;;7.97;3.70;;;25.70;99.90;;;;;;5058774;28;20509;-67
2022/08/04 08:04:13;;;;;;;10.35;3.50;;;25.90;99.90;;;;;;5068417;28;20040;-67
2022/08/04 08:06:39;;;;;;;9.05;3.42;;;25.50;99.90;;;;;;5069103;28;20032;-67
2022/08/04 08:09:11;;;;;;;8.75;3.10;;;25.70;99.90;;;;;;5068827;28;20102;-67
2022/08/04 08:11:37;;;;;;;7.45;3.00;;;25.50;99.90;;;;;;5037447;28;20539;-69
2022/08/04 08:14:03;;;;;;;8.98;3.38;;;25.80;99.90;;;;;;5043574;28;20134;-68
2022/08/04 08:16:32;;;;;;;9.75;3.00;;;26.80;99.90;;;;;;5044552;28;20049;-65
2022/08/04 08:18:58;;;;;;;7.32;3.08;;;25.60;99.90;;;;;;5031548;28;20397;-66
2022/08/04 08:21:23;;;;;;;7.03;2.95;;;25.50;99.90;;;;;;5035771;28;20041;-68
2022/08/04 08:23:49;;;;;;;9.10;3.20;;;25.10;99.90;;;;;;5046029;28;20033;-69
2022/08/04 08:26:15;;;;;;;10.80;3.25;;;25.50;99.90;;;;;;5043497;28;20099;-67
2022/08/04 08:28:41;;;;;;;10.20;2.70;;;26.50;99.90;;;;;;5034035;28;20049;-67
2022/08/04 08:31:06;;;;;;;7.43;3.75;;;26.00;99.90;;;;;;5035569;28;20120;-67
2022/08/04 08:33:33;;;;;;;8.77;3.28;;;25.30;99.90;;;;;;5039459;28;20440;-67
2022/08/04 08:36:16;;;;;;;8.57;3.92;;;25.40;99.90;;;;;;5030133;28;20055;-68
2022/08/04 08:38:52;;;;;;;7.63;3.72;;;25.30;99.90;;;;;;5036162;28;20051;-67
2022/08/04 08:41:49;;;;;;;20.50;4.32;;;25.40;99.90;;;;;;5032314;28;20407;-67
2022/08/04 08:44:52;;;;;;;8.63;3.90;;;25.30;99.90;;;;;;5033946;28;20093;-66
2022/08/04 08:47:32;;;;;;;10.10;4.03;;;25.50;99.90;;;;;;5034799;28;20069;-67
2022/08/04 08:50:22;;;;;;;8.93;3.35;;;25.40;99.90;;;;;;5033585;28;20045;-67
2022/08/04 08:53:21;;;;;;;13.13;3.05;;;25.50;99.90;;;;;;5034767;28;20100;-67
2022/08/04 08:56:25;;;;;;;11.98;3.90;;;25.60;99.90;;;;;;5036581;28;20076;-68
2022/08/04 08:59:09;;;;;;;8.25;3.45;;;25.20;99.90;;;;;;5048533;28;20053;-67
2022/08/04 09:01:57;;;;;;;11.00;3.83;;;25.50;99.90;;;;;;5048970;28;20033;-67
2022/08/04 09:04:26;;;;;;;9.30;3.35;;;25.40;99.90;;;;;;5045897;28;20498;-67
2022/08/04 09:07:29;;;;;;;8.20;2.67;;;25.50;99.90;;;;;;5044288;28;20037;-67
2022/08/04 09:10:05;;;;;;;9.15;3.70;;;25.50;99.90;;;;;;5050460;28;20041;-68
2022/08/04 09:13:04;;;;;;;11.40;2.97;;;25.20;99.90;;;;;;5049379;28;20102;-67
2022/08/04 09:15:59;;;;;;;10.40;2.78;;;25.60;99.90;;;;;;5048943;28;20041;-67
2022/08/04 09:18:33;;;;;;;5.80;2.50;;;25.60;99.90;;;;;;5038016;28;20132;-67
2022/08/04 09:21:05;;;;;;;5.60;2.50;;;25.50;99.90;;;;;;5050807;28;20110;-68
2022/08/04 09:23:58;;;;;;;7.80;3.25;;;25.40;99.90;;;;;;5050664;28;20065;-67
2022/08/04 09:26:45;;;;;;;11.55;3.00;;;25.70;99.90;;;;;;5043163;28;20053;-66
2022/08/04 09:29:20;;;;;;;7.97;2.50;;;25.90;99.90;;;;;;5050691;28;20068;-67
2022/08/04 09:32:10;;;;;;;6.13;2.95;;;26.00;99.90;;;;;;5049345;28;20052;-68
2022/08/04 09:35:00;;;;;;;10.43;3.00;;;26.00;99.90;;;;;;5042348;28;20098;-68
2022/08/04 09:37:43;;;;;;;7.63;2.33;;;26.10;99.90;;;;;;5048725;28;20094;-67
2022/08/04 09:40:33;;;;;;;6.20;2.50;;;26.10;99.90;;;;;;5049171;28;20037;-67
2022/08/04 09:43:07;;;;;;;9.15;2.50;;;26.90;99.90;;;;;;5044033;28;20059;-67
2022/08/04 09:45:42;;;;;;;6.78;2.67;;;26.30;99.90;;;;;;5052607;28;20139;-67
2022/08/04 09:48:13;;;;;;;5.55;1.92;;;26.30;99.90;;;;;;5052120;28;20091;-67
2022/08/04 09:50:44;;;;;;;6.35;1.75;;;26.30;99.90;;;;;;5047534;28;20116;-67
2022/08/04 09:53:28;;;;;;;7.32;1.45;;;26.40;99.90;;;;;;5041635;28;20037;-67
2022/08/04 09:56:08;;;;;;;5.75;1.10;;;26.70;99.90;;;;;;5052335;28;20432;-67
2022/08/04 09:59:09;;;;;;;9.77;1.75;;;26.80;99.90;;;;;;5050239;28;20399;-68
2022/08/04 10:01:37;;;;;;;7.15;1.70;;;26.40;99.90;;;;;;5052967;28;20503;-69
2022/08/04 10:04:08;;;;;;;3.05;0.80;;;28.00;99.90;;;;;;5046066;28;20160;-68
2022/08/04 10:06:39;;;;;;;6.93;1.30;;;27.70;99.90;;;;;;5052163;28;20052;-68
2022/08/04 10:09:28;;;;;;;6.07;1.17;;;26.70;99.90;;;;;;5052937;28;20399;-69
2022/08/04 10:12:26;;;;;;;11.02;1.67;;;26.60;99.90;;;;;;5052697;28;20036;-68
2022/08/04 10:14:56;;;;;;;5.22;1.13;;;26.70;99.90;;;;;;5042322;28;20099;-70
2022/08/04 10:17:58;;;;;;;7.88;1.30;;;26.70;99.90;;;;;;5049721;28;20507;-69
2022/08/04 10:20:46;;;;;;;5.13;1.02;;;26.60;99.90;;;;;;5052131;28;20055;-69
2022/08/04 10:23:15;;;;;;;6.70;1.33;;;26.60;99.90;;;;;;5051649;28;20036;-67
2022/08/04 10:26:14;;;;;;;5.65;1.40;;;26.70;99.90;;;;;;5051991;28;20070;-67
2022/08/04 10:28:56;;;;;;;8.63;1.63;;;26.70;99.90;;;;;;5052148;28;20048;-67
2022/08/04 10:31:27;;;;;;;9.32;1.33;;;26.90;99.90;;;;;;5053386;28;20094;-67
2022/08/04 10:34:18;;;;;;;7.70;1.70;;;26.90;99.90;;;;;;5053304;28;20041;-67
2022/08/04 10:37:17;;;;;;;10.38;1.80;;;26.90;99.90;;;;;;5046284;28;20103;-67
2022/08/04 10:42:44;;;;;;;4.68;1.10;;;27.30;99.90;;;;;;5046420;28;20517;-67
2022/08/04 10:45:22;;;;;;;1.60;0.60;;;27.70;99.90;;;;;;5053250;28;20033;-66
2022/08/04 10:48:06;;;;;;;3.25;0.85;;;27.20;99.90;;;;;;5052994;28;20403;-65
2022/08/04 10:50:36;;;;;;;6.00;1.00;;;26.90;99.90;;;;;;5047546;28;20407;-66
2022/08/04 10:53:16;;;;;;;4.95;0.60;;;27.20;99.90;;;;;;5050861;28;20306;-67
2022/08/04 10:56:09;;;;;;;1.38;0.65;;;27.10;99.90;;;;;;5046506;28;20533;-66
2022/08/04 10:58:44;;;;;;;3.88;0.77;;;27.40;99.90;;;;;;5044196;28;20056;-67
2022/08/04 11:01:26;;;;;;;2.60;0.70;;;27.30;99.90;;;;;;5055910;28;20064;-67
2022/08/04 11:03:59;;;;;;;2.67;0.52;;;27.20;99.90;;;;;;5048071;28;20346;-66
2022/08/04 11:06:25;;;;;;;3.70;0.95;;;27.10;99.90;;;;;;5068160;28;20497;-68
2022/08/04 11:08:54;;;;;;;5.68;0.50;;;27.10;99.90;;;;;;5047947;28;20053;-67
2022/08/04 11:11:20;;;;;;;5.35;0.75;;;27.20;99.90;;;;;;5044829;28;20042;-67
2022/08/04 11:13:56;;;;;;;2.83;0.60;;;28.10;99.90;;;;;;5052615;28;20113;-68
2022/08/04 11:16:26;;;;;;;3.47;1.10;;;27.20;99.90;;;;;;5051245;28;20041;-67
2022/08/04 11:19:34;;;;;;;4.15;0.90;;;26.80;99.90;;;;;;5052897;28;20517;-67
2022/08/04 11:22:04;;;;;;;3.60;0.82;;;26.60;99.90;;;;;;5022261;28;20555;-68
2022/08/04 11:24:51;;;;;;;3.00;0.60;;;26.90;99.90;;;;;;5044402;28;20503;-66
2022/08/04 11:27:27;;;;;;;4.45;1.00;;;26.60;99.90;;;;;;5051390;28;20115;-66
2022/08/04 11:30:19;;;;;;;3.47;0.68;;;26.70;99.90;;;;;;5052014;28;20072;-67
2022/08/04 11:33:06;;;;;;;4.72;1.00;;;27.80;99.90;;;;;;5049281;28;20060;-67
2022/08/04 11:35:41;;;;;;;5.75;0.70;;;26.70;99.90;;;;;;5047790;28;20549;-67
2022/08/04 11:38:26;;;;;;;2.17;0.60;;;26.60;99.90;;;;;;5052136;28;20045;-67
2022/08/04 11:40:57;;;;;;;3.53;0.70;;;26.30;99.90;;;;;;5040294;28;20056;-67
2022/08/04 11:43:47;;;;;;;3.63;0.80;;;26.10;99.90;;;;;;5042413;28;20560;-67
2022/08/04 11:46:19;;;;;;;3.92;0.75;;;26.40;99.90;;;;;;5034642;28;20052;-68
2022/08/04 11:48:55;;;;;;;2.92;0.40;;;27.70;99.90;;;;;;5055029;28;20045;-67
2022/08/04 11:51:22;;;;;;;3.28;0.60;;;26.60;99.90;;;;;;5032870;28;20492;-67
2022/08/04 11:53:50;;;;;;;1.38;0.40;;;26.30;99.90;;;;;;5033789;28;20041;-67
2022/08/04 11:56:15;;;;;;;2.80;0.40;;;26.30;99.90;;;;;;5033013;28;20099;-67
2022/08/04 11:58:43;;;;;;;2.47;0.68;;;26.10;99.90;;;;;;5036501;28;20053;-66
2022/08/04 12:01:26;;;;;;;1.60;0.50;;;26.30;99.90;;;;;;5033562;28;20030;-66
2022/08/04 12:04:06;;;;;;;4.15;0.55;;;25.80;99.90;;;;;;5031143;28;20133;-67
2022/08/04 12:06:48;;;;;;;4.65;1.67;;;25.80;99.90;;;;;;5032021;28;20050;-66
2022/08/04 12:09:35;;;;;;;4.45;0.70;;;26.10;99.90;;;;;;5035050;28;20080;-66
2022/08/04 12:12:12;;;;;;;1.30;0.30;;;26.00;99.90;;;;;;5036792;28;20044;-66
2022/08/04 12:15:15;;;;;;;1.38;0.40;;;25.70;99.90;;;;;;5031557;28;20428;-66
2022/08/04 12:17:54;;;;;;;4.70;0.73;;;25.70;99.90;;;;;;5033762;28;20069;-66
2022/08/04 12:20:24;;;;;;;2.17;0.40;;;25.60;99.90;;;;;;5035535;28;20041;-66
2022/08/04 12:22:54;;;;;;;2.80;0.40;;;25.40;99.90;;;;;;5032778;28;20041;-66
2022/08/04 12:25:34;;;;;;;3.50;0.40;;;25.50;99.90;;;;;;5036051;28;20045;-66
2022/08/04 12:28:06;;;;;;;3.83;0.50;;;25.40;99.90;;;;;;5034411;28;20047;-66
2022/08/04 12:30:41;;;;;;;0.90;0.28;;;25.20;99.90;;;;;;5036369;28;20039;-66
2022/08/04 12:33:15;;;;;;;1.50;0.50;;;25.50;99.90;;;;;;5032375;28;20034;-66
2022/08/04 12:35:52;;;;;;;3.08;0.50;;;25.50;99.90;;;;;;5033299;28;20120;-66
2022/08/04 12:38:21;;;;;;;4.20;0.90;;;25.70;99.90;;;;;;5030197;28;20041;-66
2022/08/04 12:40:50;;;;;;;3.28;0.47;;;25.50;99.90;;;;;;5034700;28;20521;-69
2022/08/04 12:43:30;;;;;;;5.93;0.57;;;25.50;99.90;;;;;;5033138;28;20503;-69
2022/08/04 12:46:01;;;;;;;3.22;1.00;;;25.90;99.90;;;;;;5035607;28;20124;-69
2022/08/04 12:48:28;;;;;;;4.90;0.50;;;25.70;99.90;;;;;;5041488;28;20048;-69
2022/08/04 12:50:55;;;;;;;2.28;0.45;;;25.80;99.90;;;;;;5050190;28;20029;-69
2022/08/04 12:53:27;;;;;;;5.35;0.90;;;25.70;99.90;;;;;;5049493;28;20041;-68
2022/08/04 12:55:55;;;;;;;4.88;0.60;;;27.00;99.90;;;;;;5048213;28;20041;-69
2022/08/04 12:58:24;;;;;;;2.60;0.63;;;26.00;99.90;;;;;;5054072;28;20045;-68
2022/08/04 13:00:55;;;;;;;2.97;0.60;;;26.00;99.90;;;;;;5062249;28;20128;-68
2022/08/04 13:03:23;;;;;;;0.85;0.40;;;26.70;99.90;;;;;;5065439;28;20037;-69
2022/08/04 13:05:53;;;;;;;1.75;0.40;;;25.90;99.90;;;;;;5060487;28;20045;-68
2022/08/04 13:08:20;;;;;;;3.03;0.85;;;25.90;99.90;;;;;;5057871;28;20052;-68
2022/08/04 13:10:50;;;;;;;3.92;0.95;;;25.90;99.90;;;;;;5050531;28;20094;-68
2022/08/04 13:13:23;;;;;;;3.55;0.77;;;26.80;99.90;;;;;;5049308;28;20072;-68
2022/08/04 13:15:56;;;;;;;3.00;1.27;;;26.30;99.90;;;;;;5050269;28;20045;-69
2022/08/04 13:18:22;;;;;;;2.15;0.40;;;26.40;99.90;;;;;;5049145;28;20041;-67
2022/08/04 13:20:47;;;;;;;1.05;0.50;;;26.20;99.90;;;;;;5050253;28;20107;-68
2022/08/04 13:23:16;;;;;;;2.55;0.77;;;26.80;99.90;;;;;;5049527;28;20506;-68
2022/08/04 13:25:47;;;;;;;6.63;0.80;;;26.50;99.90;;;;;;5050566;28;20408;-68
2022/08/04 13:28:21;;;;;;;5.15;0.63;;;26.20;99.90;;;;;;5050681;28;20041;-68
2022/08/04 13:30:52;;;;;;;1.73;0.40;;;26.40;99.90;;;;;;5050892;28;20174;-67
2022/08/04 13:33:19;;;;;;;5.43;1.20;;;26.60;99.90;;;;;;5048941;28;20483;-68
2022/08/04 13:35:47;;;;;;;3.58;0.60;;;26.40;99.90;;;;;;5038444;28;20037;-68
2022/08/04 13:38:15;;;;;;;3.90;0.70;;;26.40;99.90;;;;;;5045459;28;20045;-68
2022/08/04 13:40:42;;;;;;;2.47;0.57;;;26.40;99.90;;;;;;5046049;28;20044;-67